Terminal Aerodrome Forecast
Issued by NWS

Home | Current Version | Previous Version | Text Only | Print | Product List | Glossary On
Versions: 1 2 3 4 5 6 7 8 9 10 11 12 13 14 15 16 17 18 19 20 21 22 23
758
FTUS41 KBGM 270212 AAA
TAFELM
TAF AMD
KELM 270212Z 2702/2724 33003KT P6SM FEW250
     FM270700 VRB03KT 3SM BR FEW050
      TEMPO 2709/2712 3/4SM BR OVC004
     FM271300 VRB03KT P6SM FEW200=

USA.gov is the U.S. government's official web portal to all federal, state and local government web resources and services.